sensor_id;sensor_type;location;lat;lon;timestamp;P1;durP1;ratioP1;P2;durP2;ratioP2
52512;SDS011;38422;53.172;6.974;2023-12-20T00:01:31;4.63;;;0.68;;
52512;SDS011;38422;53.172;6.974;2023-12-20T00:03:57;5.15;;;0.55;;
52512;SDS011;38422;53.172;6.974;2023-12-20T00:06:23;8.55;;;0.73;;
52512;SDS011;38422;53.172;6.974;2023-12-20T00:08:49;6.00;;;0.70;;
52512;SDS011;38422;53.172;6.974;2023-12-20T00:11:14;5.35;;;0.68;;
52512;SDS011;38422;53.172;6.974;2023-12-20T00:13:40;5.13;;;0.70;;
52512;SDS011;38422;53.172;6.974;2023-12-20T00:16:06;4.72;;;0.50;;
52512;SDS011;38422;53.172;6.974;2023-12-20T00:18:31;5.75;;;0.70;;
52512;SDS011;38422;53.172;6.974;2023-12-20T00:20:57;4.57;;;0.80;;
52512;SDS011;38422;53.172;6.974;2023-12-20T00:23:23;4.43;;;0.75;;
52512;SDS011;38422;53.172;6.974;2023-12-20T00:25:49;2.03;;;0.40;;
52512;SDS011;38422;53.172;6.974;2023-12-20T00:28:15;4.97;;;0.57;;
52512;SDS011;38422;53.172;6.974;2023-12-20T00:30:40;5.57;;;0.73;;
52512;SDS011;38422;53.172;6.974;2023-12-20T00:33:06;6.35;;;0.70;;
52512;SDS011;38422;53.172;6.974;2023-12-20T00:35:32;6.65;;;1.30;;
52512;SDS011;38422;53.172;6.974;2023-12-20T00:37:58;3.42;;;0.52;;
52512;SDS011;38422;53.172;6.974;2023-12-20T00:40:24;2.45;;;0.57;;
52512;SDS011;38422;53.172;6.974;2023-12-20T00:42:50;6.03;;;1.60;;
52512;SDS011;38422;53.172;6.974;2023-12-20T00:45:15;8.27;;;1.08;;
52512;SDS011;38422;53.172;6.974;2023-12-20T00:47:41;8.20;;;1.00;;
52512;SDS011;38422;53.172;6.974;2023-12-20T00:50:07;6.80;;;0.82;;
52512;SDS011;38422;53.172;6.974;2023-12-20T00:52:33;8.98;;;0.60;;
52512;SDS011;38422;53.172;6.974;2023-12-20T00:54:59;6.25;;;0.60;;
52512;SDS011;38422;53.172;6.974;2023-12-20T00:57:24;7.10;;;1.10;;
52512;SDS011;38422;53.172;6.974;2023-12-20T00:59:50;4.65;;;0.50;;
52512;SDS011;38422;53.172;6.974;2023-12-20T01:02:16;5.60;;;0.82;;
52512;SDS011;38422;53.172;6.974;2023-12-20T01:04:42;3.85;;;0.60;;
52512;SDS011;38422;53.172;6.974;2023-12-20T01:07:07;7.25;;;1.00;;
52512;SDS011;38422;53.172;6.974;2023-12-20T01:09:33;5.60;;;0.90;;
52512;SDS011;38422;53.172;6.974;2023-12-20T01:11:59;5.80;;;0.63;;
52512;SDS011;38422;53.172;6.974;2023-12-20T01:14:24;6.20;;;0.93;;
52512;SDS011;38422;53.172;6.974;2023-12-20T01:16:50;6.97;;;0.77;;
52512;SDS011;38422;53.172;6.974;2023-12-20T01:19:16;4.22;;;0.57;;
52512;SDS011;38422;53.172;6.974;2023-12-20T01:21:42;3.55;;;0.52;;
52512;SDS011;38422;53.172;6.974;2023-12-20T01:24:07;6.22;;;0.70;;
52512;SDS011;38422;53.172;6.974;2023-12-20T01:26:33;5.88;;;0.80;;
52512;SDS011;38422;53.172;6.974;2023-12-20T01:28:58;12.07;;;1.55;;
52512;SDS011;38422;53.172;6.974;2023-12-20T01:31:24;2.90;;;0.63;;
52512;SDS011;38422;53.172;6.974;2023-12-20T01:33:52;7.53;;;0.88;;
52512;SDS011;38422;53.172;6.974;2023-12-20T01:36:18;5.00;;;1.00;;
52512;SDS011;38422;53.172;6.974;2023-12-20T01:38:43;3.55;;;0.85;;
52512;SDS011;38422;53.172;6.974;2023-12-20T01:41:09;6.10;;;0.70;;
52512;SDS011;38422;53.172;6.974;2023-12-20T01:43:35;6.38;;;1.20;;
52512;SDS011;38422;53.172;6.974;2023-12-20T01:46:00;8.32;;;1.10;;
52512;SDS011;38422;53.172;6.974;2023-12-20T01:48:26;8.63;;;1.17;;
52512;SDS011;38422;53.172;6.974;2023-12-20T01:50:53;11.53;;;1.20;;
52512;SDS011;38422;53.172;6.974;2023-12-20T01:53:20;11.48;;;1.33;;
52512;SDS011;38422;53.172;6.974;2023-12-20T01:55:48;6.40;;;0.70;;
52512;SDS011;38422;53.172;6.974;2023-12-20T01:58:17;3.90;;;1.27;;
52512;SDS011;38422;53.172;6.974;2023-12-20T02:00:44;5.97;;;0.90;;
52512;SDS011;38422;53.172;6.974;2023-12-20T02:03:10;12.40;;;1.20;;
52512;SDS011;38422;53.172;6.974;2023-12-20T02:05:37;4.40;;;0.90;;
52512;SDS011;38422;53.172;6.974;2023-12-20T02:08:04;5.35;;;0.70;;
52512;SDS011;38422;53.172;6.974;2023-12-20T02:10:30;6.18;;;0.90;;
52512;SDS011;38422;53.172;6.974;2023-12-20T02:12:57;4.60;;;1.00;;
52512;SDS011;38422;53.172;6.974;2023-12-20T02:15:23;5.75;;;0.73;;
52512;SDS011;38422;53.172;6.974;2023-12-20T02:17:48;6.13;;;0.85;;
52512;SDS011;38422;53.172;6.974;2023-12-20T02:20:14;7.43;;;1.10;;
52512;SDS011;38422;53.172;6.974;2023-12-20T02:22:40;4.38;;;0.90;;
52512;SDS011;38422;53.172;6.974;2023-12-20T02:25:05;6.00;;;0.95;;
52512;SDS011;38422;53.172;6.974;2023-12-20T02:27:31;9.00;;;1.17;;
52512;SDS011;38422;53.172;6.974;2023-12-20T02:29:57;6.15;;;0.73;;
52512;SDS011;38422;53.172;6.974;2023-12-20T02:32:23;5.45;;;0.70;;
52512;SDS011;38422;53.172;6.974;2023-12-20T02:34:53;5.18;;;0.82;;
52512;SDS011;38422;53.172;6.974;2023-12-20T02:37:19;5.88;;;0.70;;
52512;SDS011;38422;53.172;6.974;2023-12-20T02:39:45;6.43;;;0.90;;
52512;SDS011;38422;53.172;6.974;2023-12-20T02:42:11;6.95;;;0.85;;
52512;SDS011;38422;53.172;6.974;2023-12-20T02:44:36;6.85;;;0.90;;
52512;SDS011;38422;53.172;6.974;2023-12-20T02:47:02;5.30;;;0.70;;
52512;SDS011;38422;53.172;6.974;2023-12-20T02:49:28;12.02;;;1.33;;
52512;SDS011;38422;53.172;6.974;2023-12-20T02:51:54;4.53;;;0.70;;
52512;SDS011;38422;53.172;6.974;2023-12-20T02:54:20;3.92;;;0.68;;
52512;SDS011;38422;53.172;6.974;2023-12-20T02:56:45;4.80;;;0.75;;
52512;SDS011;38422;53.172;6.974;2023-12-20T02:59:11;7.88;;;0.98;;
52512;SDS011;38422;53.172;6.974;2023-12-20T03:01:46;6.72;;;0.95;;
52512;SDS011;38422;53.172;6.974;2023-12-20T03:04:12;4.95;;;0.70;;
52512;SDS011;38422;53.172;6.974;2023-12-20T03:06:38;6.75;;;0.90;;
52512;SDS011;38422;53.172;6.974;2023-12-20T03:09:04;5.60;;;0.98;;
52512;SDS011;38422;53.172;6.974;2023-12-20T03:11:30;9.23;;;1.25;;
52512;SDS011;38422;53.172;6.974;2023-12-20T03:13:56;5.85;;;1.10;;
52512;SDS011;38422;53.172;6.974;2023-12-20T03:16:22;11.50;;;1.50;;
52512;SDS011;38422;53.172;6.974;2023-12-20T03:18:47;9.38;;;1.08;;
52512;SDS011;38422;53.172;6.974;2023-12-20T03:21:13;10.40;;;1.25;;
52512;SDS011;38422;53.172;6.974;2023-12-20T03:23:39;11.07;;;1.30;;
52512;SDS011;38422;53.172;6.974;2023-12-20T03:26:09;10.85;;;1.30;;
52512;SDS011;38422;53.172;6.974;2023-12-20T03:28:35;12.20;;;1.38;;
52512;SDS011;38422;53.172;6.974;2023-12-20T03:31:01;7.43;;;1.50;;
52512;SDS011;38422;53.172;6.974;2023-12-20T03:33:28;7.70;;;1.23;;
52512;SDS011;38422;53.172;6.974;2023-12-20T03:35:54;11.30;;;1.02;;
52512;SDS011;38422;53.172;6.974;2023-12-20T03:38:20;10.10;;;1.55;;
52512;SDS011;38422;53.172;6.974;2023-12-20T03:40:46;10.53;;;1.00;;
52512;SDS011;38422;53.172;6.974;2023-12-20T03:43:11;12.30;;;1.20;;
52512;SDS011;38422;53.172;6.974;2023-12-20T03:45:37;15.02;;;2.28;;
52512;SDS011;38422;53.172;6.974;2023-12-20T03:48:03;10.63;;;1.70;;
52512;SDS011;38422;53.172;6.974;2023-12-20T03:50:29;14.75;;;1.77;;
52512;SDS011;38422;53.172;6.974;2023-12-20T03:52:55;15.20;;;2.05;;
52512;SDS011;38422;53.172;6.974;2023-12-20T03:55:21;12.52;;;1.80;;
52512;SDS011;38422;53.172;6.974;2023-12-20T03:57:46;11.75;;;2.10;;
52512;SDS011;38422;53.172;6.974;2023-12-20T04:00:14;15.15;;;1.77;;
52512;SDS011;38422;53.172;6.974;2023-12-20T04:02:40;12.32;;;1.42;;
52512;SDS011;38422;53.172;6.974;2023-12-20T04:05:07;14.05;;;2.15;;
52512;SDS011;38422;53.172;6.974;2023-12-20T04:07:35;13.05;;;1.52;;
52512;SDS011;38422;53.172;6.974;2023-12-20T04:10:01;12.93;;;2.20;;
52512;SDS011;38422;53.172;6.974;2023-12-20T04:14:54;21.77;;;2.22;;
52512;SDS011;38422;53.172;6.974;2023-12-20T04:17:20;11.23;;;2.28;;
52512;SDS011;38422;53.172;6.974;2023-12-20T04:19:47;12.13;;;2.10;;
52512;SDS011;38422;53.172;6.974;2023-12-20T04:22:13;15.23;;;1.92;;
52512;SDS011;38422;53.172;6.974;2023-12-20T04:24:39;12.23;;;1.55;;
52512;SDS011;38422;53.172;6.974;2023-12-20T04:27:07;14.10;;;2.08;;
52512;SDS011;38422;53.172;6.974;2023-12-20T04:29:33;16.70;;;2.10;;
52512;SDS011;38422;53.172;6.974;2023-12-20T04:31:59;17.13;;;2.38;;
52512;SDS011;38422;53.172;6.974;2023-12-20T04:34:25;16.05;;;2.17;;
52512;SDS011;38422;53.172;6.974;2023-12-20T04:36:51;13.32;;;1.70;;
52512;SDS011;38422;53.172;6.974;2023-12-20T04:39:17;10.63;;;1.58;;
52512;SDS011;38422;53.172;6.974;2023-12-20T04:41:42;11.55;;;1.30;;
52512;SDS011;38422;53.172;6.974;2023-12-20T04:44:08;8.85;;;1.35;;
52512;SDS011;38422;53.172;6.974;2023-12-20T04:46:34;14.15;;;1.42;;
52512;SDS011;38422;53.172;6.974;2023-12-20T04:49:00;11.45;;;1.48;;
52512;SDS011;38422;53.172;6.974;2023-12-20T04:51:26;9.65;;;2.05;;
52512;SDS011;38422;53.172;6.974;2023-12-20T04:53:52;10.68;;;1.60;;
52512;SDS011;38422;53.172;6.974;2023-12-20T04:56:17;6.63;;;1.33;;
52512;SDS011;38422;53.172;6.974;2023-12-20T04:58:43;9.73;;;1.50;;
52512;SDS011;38422;53.172;6.974;2023-12-20T05:01:09;12.35;;;1.50;;
52512;SDS011;38422;53.172;6.974;2023-12-20T05:03:35;11.38;;;1.38;;
52512;SDS011;38422;53.172;6.974;2023-12-20T05:06:00;11.43;;;1.42;;
52512;SDS011;38422;53.172;6.974;2023-12-20T05:08:26;12.75;;;1.40;;
52512;SDS011;38422;53.172;6.974;2023-12-20T05:10:53;14.55;;;1.73;;
52512;SDS011;38422;53.172;6.974;2023-12-20T05:13:20;12.02;;;1.35;;
52512;SDS011;38422;53.172;6.974;2023-12-20T05:15:45;11.98;;;1.60;;
52512;SDS011;38422;53.172;6.974;2023-12-20T05:18:12;6.55;;;1.25;;
52512;SDS011;38422;53.172;6.974;2023-12-20T05:20:38;11.43;;;1.63;;
52512;SDS011;38422;53.172;6.974;2023-12-20T05:23:04;11.27;;;1.80;;
52512;SDS011;38422;53.172;6.974;2023-12-20T05:25:29;16.95;;;1.70;;
52512;SDS011;38422;53.172;6.974;2023-12-20T05:27:55;11.00;;;1.77;;
52512;SDS011;38422;53.172;6.974;2023-12-20T05:30:21;13.50;;;1.70;;
52512;SDS011;38422;53.172;6.974;2023-12-20T05:32:47;11.88;;;1.40;;
52512;SDS011;38422;53.172;6.974;2023-12-20T05:35:13;11.57;;;1.40;;
52512;SDS011;38422;53.172;6.974;2023-12-20T05:37:38;13.57;;;2.17;;
52512;SDS011;38422;53.172;6.974;2023-12-20T05:40:04;9.52;;;1.58;;
52512;SDS011;38422;53.172;6.974;2023-12-20T05:42:31;11.75;;;1.40;;
52512;SDS011;38422;53.172;6.974;2023-12-20T05:44:56;14.68;;;1.88;;
52512;SDS011;38422;53.172;6.974;2023-12-20T05:47:22;11.60;;;1.52;;
52512;SDS011;38422;53.172;6.974;2023-12-20T05:49:48;8.73;;;1.20;;
52512;SDS011;38422;53.172;6.974;2023-12-20T05:52:15;12.15;;;1.52;;
52512;SDS011;38422;53.172;6.974;2023-12-20T05:54:40;11.02;;;1.48;;
52512;SDS011;38422;53.172;6.974;2023-12-20T05:57:06;10.93;;;1.35;;
52512;SDS011;38422;53.172;6.974;2023-12-20T05:59:32;13.27;;;1.75;;
52512;SDS011;38422;53.172;6.974;2023-12-20T06:01:58;13.88;;;2.05;;
52512;SDS011;38422;53.172;6.974;2023-12-20T06:04:27;12.32;;;1.52;;
52512;SDS011;38422;53.172;6.974;2023-12-20T06:06:52;12.90;;;1.42;;
52512;SDS011;38422;53.172;6.974;2023-12-20T06:09:18;9.55;;;1.30;;
52512;SDS011;38422;53.172;6.974;2023-12-20T06:11:44;13.13;;;1.52;;
52512;SDS011;38422;53.172;6.974;2023-12-20T06:14:10;12.82;;;1.98;;
52512;SDS011;38422;53.172;6.974;2023-12-20T06:16:36;10.45;;;1.60;;
52512;SDS011;38422;53.172;6.974;2023-12-20T06:19:02;12.73;;;1.42;;
52512;SDS011;38422;53.172;6.974;2023-12-20T06:21:27;8.25;;;1.30;;
52512;SDS011;38422;53.172;6.974;2023-12-20T06:23:53;13.15;;;1.33;;
52512;SDS011;38422;53.172;6.974;2023-12-20T06:26:19;12.45;;;1.52;;
52512;SDS011;38422;53.172;6.974;2023-12-20T06:28:45;7.32;;;1.50;;
52512;SDS011;38422;53.172;6.974;2023-12-20T06:31:11;14.75;;;1.77;;
52512;SDS011;38422;53.172;6.974;2023-12-20T06:33:37;10.65;;;1.52;;
52512;SDS011;38422;53.172;6.974;2023-12-20T06:36:05;15.02;;;1.90;;
52512;SDS011;38422;53.172;6.974;2023-12-20T06:38:31;17.10;;;1.80;;
52512;SDS011;38422;53.172;6.974;2023-12-20T06:40:57;12.65;;;1.77;;
52512;SDS011;38422;53.172;6.974;2023-12-20T06:43:23;12.52;;;1.40;;
52512;SDS011;38422;53.172;6.974;2023-12-20T06:45:49;9.40;;;1.20;;
52512;SDS011;38422;53.172;6.974;2023-12-20T06:48:16;10.52;;;1.65;;
52512;SDS011;38422;53.172;6.974;2023-12-20T06:50:41;13.43;;;1.33;;
52512;SDS011;38422;53.172;6.974;2023-12-20T06:53:07;10.73;;;1.48;;
52512;SDS011;38422;53.172;6.974;2023-12-20T06:55:34;14.98;;;1.35;;
52512;SDS011;38422;53.172;6.974;2023-12-20T07:00:27;14.68;;;1.98;;
52512;SDS011;38422;53.172;6.974;2023-12-20T07:02:52;13.13;;;1.80;;
52512;SDS011;38422;53.172;6.974;2023-12-20T07:05:18;9.75;;;1.65;;
52512;SDS011;38422;53.172;6.974;2023-12-20T07:07:45;12.90;;;2.05;;
52512;SDS011;38422;53.172;6.974;2023-12-20T07:10:12;12.82;;;1.58;;
52512;SDS011;38422;53.172;6.974;2023-12-20T07:12:38;10.57;;;1.30;;
52512;SDS011;38422;53.172;6.974;2023-12-20T07:15:04;9.68;;;2.03;;
52512;SDS011;38422;53.172;6.974;2023-12-20T07:17:31;10.27;;;1.38;;
52512;SDS011;38422;53.172;6.974;2023-12-20T07:19:58;9.52;;;1.58;;
52512;SDS011;38422;53.172;6.974;2023-12-20T07:22:24;12.68;;;1.40;;
52512;SDS011;38422;53.172;6.974;2023-12-20T07:24:49;15.98;;;2.00;;
52512;SDS011;38422;53.172;6.974;2023-12-20T07:29:42;19.60;;;1.67;;
52512;SDS011;38422;53.172;6.974;2023-12-20T07:32:08;10.90;;;1.40;;
52512;SDS011;38422;53.172;6.974;2023-12-20T07:34:34;18.38;;;2.50;;
52512;SDS011;38422;53.172;6.974;2023-12-20T07:36:59;13.07;;;1.98;;
52512;SDS011;38422;53.172;6.974;2023-12-20T07:39:25;15.13;;;1.98;;
52512;SDS011;38422;53.172;6.974;2023-12-20T07:41:51;20.08;;;2.05;;
52512;SDS011;38422;53.172;6.974;2023-12-20T07:44:16;15.63;;;2.00;;
52512;SDS011;38422;53.172;6.974;2023-12-20T07:46:42;15.07;;;2.22;;
52512;SDS011;38422;53.172;6.974;2023-12-20T07:49:08;13.82;;;1.83;;
52512;SDS011;38422;53.172;6.974;2023-12-20T07:51:35;14.30;;;2.00;;
52512;SDS011;38422;53.172;6.974;2023-12-20T07:54:01;18.25;;;2.35;;
52512;SDS011;38422;53.172;6.974;2023-12-20T07:56:26;13.68;;;1.88;;
52512;SDS011;38422;53.172;6.974;2023-12-20T07:58:52;15.43;;;2.40;;
52512;SDS011;38422;53.172;6.974;2023-12-20T08:01:18;18.45;;;1.95;;
52512;SDS011;38422;53.172;6.974;2023-12-20T08:03:43;12.65;;;1.90;;
52512;SDS011;38422;53.172;6.974;2023-12-20T08:06:09;16.23;;;1.98;;
52512;SDS011;38422;53.172;6.974;2023-12-20T08:08:35;13.50;;;1.95;;
52512;SDS011;38422;53.172;6.974;2023-12-20T08:11:00;12.57;;;2.40;;
52512;SDS011;38422;53.172;6.974;2023-12-20T08:13:27;12.80;;;2.22;;
52512;SDS011;38422;53.172;6.974;2023-12-20T08:15:53;16.10;;;2.00;;
52512;SDS011;38422;53.172;6.974;2023-12-20T08:18:21;17.25;;;2.13;;
52512;SDS011;38422;53.172;6.974;2023-12-20T08:20:47;13.88;;;1.50;;
52512;SDS011;38422;53.172;6.974;2023-12-20T08:23:13;16.55;;;1.90;;
52512;SDS011;38422;53.172;6.974;2023-12-20T08:25:39;14.50;;;1.88;;
52512;SDS011;38422;53.172;6.974;2023-12-20T08:28:04;10.77;;;1.52;;
52512;SDS011;38422;53.172;6.974;2023-12-20T08:30:31;10.57;;;1.67;;
52512;SDS011;38422;53.172;6.974;2023-12-20T08:32:59;12.35;;;1.73;;
52512;SDS011;38422;53.172;6.974;2023-12-20T08:35:25;16.25;;;2.00;;
52512;SDS011;38422;53.172;6.974;2023-12-20T08:37:51;14.68;;;1.85;;
52512;SDS011;38422;53.172;6.974;2023-12-20T08:40:17;13.00;;;1.92;;
52512;SDS011;38422;53.172;6.974;2023-12-20T08:42:42;9.23;;;1.40;;
52512;SDS011;38422;53.172;6.974;2023-12-20T08:45:09;12.02;;;1.70;;
52512;SDS011;38422;53.172;6.974;2023-12-20T08:47:35;12.52;;;1.73;;
52512;SDS011;38422;53.172;6.974;2023-12-20T08:50:00;11.50;;;2.25;;
52512;SDS011;38422;53.172;6.974;2023-12-20T08:52:27;5.15;;;0.88;;
52512;SDS011;38422;53.172;6.974;2023-12-20T08:54:54;6.85;;;1.00;;
52512;SDS011;38422;53.172;6.974;2023-12-20T08:57:20;1.00;;;0.25;;
52512;SDS011;38422;53.172;6.974;2023-12-20T08:59:46;2.97;;;0.30;;
52512;SDS011;38422;53.172;6.974;2023-12-20T09:02:13;3.40;;;0.50;;
52512;SDS011;38422;53.172;6.974;2023-12-20T09:04:39;2.27;;;0.50;;
52512;SDS011;38422;53.172;6.974;2023-12-20T09:07:05;2.83;;;0.50;;
52512;SDS011;38422;53.172;6.974;2023-12-20T09:09:30;3.47;;;0.60;;
52512;SDS011;38422;53.172;6.974;2023-12-20T09:11:57;2.75;;;0.50;;
52512;SDS011;38422;53.172;6.974;2023-12-20T09:14:23;2.22;;;0.40;;
52512;SDS011;38422;53.172;6.974;2023-12-20T09:16:49;3.28;;;0.47;;
52512;SDS011;38422;53.172;6.974;2023-12-20T09:19:16;6.50;;;0.65;;
52512;SDS011;38422;53.172;6.974;2023-12-20T09:21:42;3.67;;;0.60;;
52512;SDS011;38422;53.172;6.974;2023-12-20T09:24:08;2.35;;;0.55;;
52512;SDS011;38422;53.172;6.974;2023-12-20T09:26:34;3.45;;;0.50;;
52512;SDS011;38422;53.172;6.974;2023-12-20T09:29:00;4.53;;;0.80;;
52512;SDS011;38422;53.172;6.974;2023-12-20T09:31:26;3.85;;;0.60;;
52512;SDS011;38422;53.172;6.974;2023-12-20T09:33:52;2.55;;;0.50;;
52512;SDS011;38422;53.172;6.974;2023-12-20T09:36:17;3.38;;;0.40;;
52512;SDS011;38422;53.172;6.974;2023-12-20T09:38:43;5.85;;;0.52;;
52512;SDS011;38422;53.172;6.974;2023-12-20T09:41:09;2.28;;;0.50;;
52512;SDS011;38422;53.172;6.974;2023-12-20T09:43:35;6.90;;;0.65;;
52512;SDS011;38422;53.172;6.974;2023-12-20T09:46:02;3.15;;;0.40;;
52512;SDS011;38422;53.172;6.974;2023-12-20T09:48:35;2.83;;;0.43;;
52512;SDS011;38422;53.172;6.974;2023-12-20T09:51:02;3.63;;;0.32;;
52512;SDS011;38422;53.172;6.974;2023-12-20T09:53:28;4.35;;;0.75;;
52512;SDS011;38422;53.172;6.974;2023-12-20T09:55:58;7.70;;;0.55;;
52512;SDS011;38422;53.172;6.974;2023-12-20T09:58:25;2.60;;;0.40;;
52512;SDS011;38422;53.172;6.974;2023-12-20T10:00:51;2.92;;;0.50;;
52512;SDS011;38422;53.172;6.974;2023-12-20T10:03:19;3.58;;;0.60;;
52512;SDS011;38422;53.172;6.974;2023-12-20T10:05:51;3.78;;;0.50;;
52512;SDS011;38422;53.172;6.974;2023-12-20T10:08:20;6.28;;;0.60;;
52512;SDS011;38422;53.172;6.974;2023-12-20T10:10:47;3.80;;;0.40;;
52512;SDS011;38422;53.172;6.974;2023-12-20T10:13:13;3.22;;;0.40;;
52512;SDS011;38422;53.172;6.974;2023-12-20T10:15:41;5.38;;;0.40;;
52512;SDS011;38422;53.172;6.974;2023-12-20T10:18:06;2.67;;;0.50;;
52512;SDS011;38422;53.172;6.974;2023-12-20T10:20:33;6.85;;;0.77;;
52512;SDS011;38422;53.172;6.974;2023-12-20T10:22:59;4.60;;;0.80;;
52512;SDS011;38422;53.172;6.974;2023-12-20T10:25:25;4.00;;;0.40;;
52512;SDS011;38422;53.172;6.974;2023-12-20T10:30:37;3.17;;;0.82;;
52512;SDS011;38422;53.172;6.974;2023-12-20T10:33:05;4.97;;;0.70;;
52512;SDS011;38422;53.172;6.974;2023-12-20T10:35:32;4.53;;;0.60;;
52512;SDS011;38422;53.172;6.974;2023-12-20T10:37:58;5.28;;;0.70;;
52512;SDS011;38422;53.172;6.974;2023-12-20T10:40:28;7.10;;;1.00;;
52512;SDS011;38422;53.172;6.974;2023-12-20T10:42:54;6.20;;;0.60;;
52512;SDS011;38422;53.172;6.974;2023-12-20T10:45:23;2.67;;;0.52;;
52512;SDS011;38422;53.172;6.974;2023-12-20T10:47:49;4.15;;;0.70;;
52512;SDS011;38422;53.172;6.974;2023-12-20T10:50:16;4.78;;;0.80;;
52512;SDS011;38422;53.172;6.974;2023-12-20T10:52:43;6.13;;;0.80;;
52512;SDS011;38422;53.172;6.974;2023-12-20T10:57:36;4.75;;;0.70;;
52512;SDS011;38422;53.172;6.974;2023-12-20T11:00:02;8.75;;;0.85;;
52512;SDS011;38422;53.172;6.974;2023-12-20T11:02:33;6.82;;;0.95;;
52512;SDS011;38422;53.172;6.974;2023-12-20T11:07:48;7.95;;;0.95;;
52512;SDS011;38422;53.172;6.974;2023-12-20T11:13:32;8.15;;;1.40;;
52512;SDS011;38422;53.172;6.974;2023-12-20T11:16:03;7.13;;;0.95;;
52512;SDS011;38422;53.172;6.974;2023-12-20T11:18:29;9.85;;;0.98;;
52512;SDS011;38422;53.172;6.974;2023-12-20T11:20:55;8.80;;;1.13;;
52512;SDS011;38422;53.172;6.974;2023-12-20T11:23:31;3.55;;;1.17;;
52512;SDS011;38422;53.172;6.974;2023-12-20T11:26:01;6.90;;;0.90;;
52512;SDS011;38422;53.172;6.974;2023-12-20T11:28:28;7.15;;;1.08;;
52512;SDS011;38422;53.172;6.974;2023-12-20T11:30:55;5.47;;;0.95;;
52512;SDS011;38422;53.172;6.974;2023-12-20T11:33:45;7.82;;;1.00;;
52512;SDS011;38422;53.172;6.974;2023-12-20T11:36:14;7.30;;;1.23;;
52512;SDS011;38422;53.172;6.974;2023-12-20T11:39:16;10.93;;;1.67;;
52512;SDS011;38422;53.172;6.974;2023-12-20T11:41:36;10.48;;;1.02;;
52512;SDS011;38422;53.172;6.974;2023-12-20T11:44:01;5.10;;;0.80;;
52512;SDS011;38422;53.172;6.974;2023-12-20T11:46:29;7.82;;;1.30;;
52512;SDS011;38422;53.172;6.974;2023-12-20T11:48:56;8.65;;;1.30;;
52512;SDS011;38422;53.172;6.974;2023-12-20T11:51:22;8.95;;;1.00;;
52512;SDS011;38422;53.172;6.974;2023-12-20T11:53:51;7.90;;;1.00;;
52512;SDS011;38422;53.172;6.974;2023-12-20T11:56:18;8.32;;;1.27;;
52512;SDS011;38422;53.172;6.974;2023-12-20T11:58:43;8.45;;;1.10;;
52512;SDS011;38422;53.172;6.974;2023-12-20T12:01:09;7.72;;;1.25;;
52512;SDS011;38422;53.172;6.974;2023-12-20T12:03:35;10.10;;;1.10;;
52512;SDS011;38422;53.172;6.974;2023-12-20T12:06:01;7.68;;;1.08;;
52512;SDS011;38422;53.172;6.974;2023-12-20T12:08:29;7.07;;;0.90;;
52512;SDS011;38422;53.172;6.974;2023-12-20T12:10:55;13.38;;;1.15;;
52512;SDS011;38422;53.172;6.974;2023-12-20T12:13:21;10.13;;;1.30;;
52512;SDS011;38422;53.172;6.974;2023-12-20T12:15:47;6.43;;;1.00;;
52512;SDS011;38422;53.172;6.974;2023-12-20T12:18:16;13.67;;;1.27;;
52512;SDS011;38422;53.172;6.974;2023-12-20T12:20:43;7.70;;;1.25;;
52512;SDS011;38422;53.172;6.974;2023-12-20T12:23:08;7.65;;;0.98;;
52512;SDS011;38422;53.172;6.974;2023-12-20T12:25:35;7.65;;;1.00;;
52512;SDS011;38422;53.172;6.974;2023-12-20T12:28:02;7.15;;;0.90;;
52512;SDS011;38422;53.172;6.974;2023-12-20T12:30:28;4.90;;;0.90;;
52512;SDS011;38422;53.172;6.974;2023-12-20T12:32:55;8.68;;;1.20;;
52512;SDS011;38422;53.172;6.974;2023-12-20T12:35:21;10.35;;;1.42;;
52512;SDS011;38422;53.172;6.974;2023-12-20T12:37:47;7.65;;;1.40;;
52512;SDS011;38422;53.172;6.974;2023-12-20T12:40:14;6.95;;;1.02;;
52512;SDS011;38422;53.172;6.974;2023-12-20T12:42:42;9.43;;;1.00;;
52512;SDS011;38422;53.172;6.974;2023-12-20T12:45:10;6.65;;;1.13;;
52512;SDS011;38422;53.172;6.974;2023-12-20T12:47:40;10.32;;;1.05;;
52512;SDS011;38422;53.172;6.974;2023-12-20T12:50:06;10.10;;;1.13;;
52512;SDS011;38422;53.172;6.974;2023-12-20T12:52:32;4.63;;;0.70;;
52512;SDS011;38422;53.172;6.974;2023-12-20T12:54:58;12.20;;;1.13;;
52512;SDS011;38422;53.172;6.974;2023-12-20T12:57:24;9.47;;;1.20;;
52512;SDS011;38422;53.172;6.974;2023-12-20T12:59:50;6.82;;;0.70;;
52512;SDS011;38422;53.172;6.974;2023-12-20T13:02:16;7.68;;;1.20;;
52512;SDS011;38422;53.172;6.974;2023-12-20T13:04:42;6.90;;;1.60;;
52512;SDS011;38422;53.172;6.974;2023-12-20T13:07:08;6.07;;;0.93;;
52512;SDS011;38422;53.172;6.974;2023-12-20T13:09:37;6.65;;;1.10;;
52512;SDS011;38422;53.172;6.974;2023-12-20T13:12:04;9.07;;;0.95;;
52512;SDS011;38422;53.172;6.974;2023-12-20T13:14:34;7.32;;;0.70;;
52512;SDS011;38422;53.172;6.974;2023-12-20T13:17:02;6.43;;;0.77;;
52512;SDS011;38422;53.172;6.974;2023-12-20T13:19:29;5.28;;;0.90;;
52512;SDS011;38422;53.172;6.974;2023-12-20T13:21:55;8.50;;;1.33;;
52512;SDS011;38422;53.172;6.974;2023-12-20T13:24:21;5.40;;;0.82;;
52512;SDS011;38422;53.172;6.974;2023-12-20T13:26:47;8.60;;;1.10;;
52512;SDS011;38422;53.172;6.974;2023-12-20T13:29:13;7.30;;;0.95;;
52512;SDS011;38422;53.172;6.974;2023-12-20T13:31:38;7.53;;;1.33;;
52512;SDS011;38422;53.172;6.974;2023-12-20T13:34:05;9.30;;;0.95;;
52512;SDS011;38422;53.172;6.974;2023-12-20T13:36:31;8.97;;;1.33;;
52512;SDS011;38422;53.172;6.974;2023-12-20T13:39:03;10.32;;;0.90;;
52512;SDS011;38422;53.172;6.974;2023-12-20T13:41:30;5.78;;;1.05;;
52512;SDS011;38422;53.172;6.974;2023-12-20T13:43:56;4.63;;;0.77;;
52512;SDS011;38422;53.172;6.974;2023-12-20T13:46:21;8.52;;;1.25;;
52512;SDS011;38422;53.172;6.974;2023-12-20T13:48:48;10.23;;;1.35;;
52512;SDS011;38422;53.172;6.974;2023-12-20T13:51:14;6.28;;;0.88;;
52512;SDS011;38422;53.172;6.974;2023-12-20T13:53:40;8.40;;;1.30;;
52512;SDS011;38422;53.172;6.974;2023-12-20T13:56:07;8.15;;;1.08;;
52512;SDS011;38422;53.172;6.974;2023-12-20T13:58:33;8.50;;;0.90;;
52512;SDS011;38422;53.172;6.974;2023-12-20T14:00:58;6.20;;;1.17;;
52512;SDS011;38422;53.172;6.974;2023-12-20T14:03:25;10.55;;;1.10;;
52512;SDS011;38422;53.172;6.974;2023-12-20T14:05:51;6.65;;;1.00;;
52512;SDS011;38422;53.172;6.974;2023-12-20T14:08:17;6.20;;;1.40;;
52512;SDS011;38422;53.172;6.974;2023-12-20T14:10:43;9.48;;;1.20;;
52512;SDS011;38422;53.172;6.974;2023-12-20T14:13:11;5.00;;;0.80;;
52512;SDS011;38422;53.172;6.974;2023-12-20T14:15:36;9.13;;;1.35;;
52512;SDS011;38422;53.172;6.974;2023-12-20T14:18:05;5.15;;;0.88;;
52512;SDS011;38422;53.172;6.974;2023-12-20T14:20:32;6.07;;;0.90;;
52512;SDS011;38422;53.172;6.974;2023-12-20T14:23:02;6.20;;;0.90;;
52512;SDS011;38422;53.172;6.974;2023-12-20T14:25:28;5.05;;;0.75;;
52512;SDS011;38422;53.172;6.974;2023-12-20T14:27:54;5.63;;;0.70;;
52512;SDS011;38422;53.172;6.974;2023-12-20T14:30:21;5.55;;;0.70;;
52512;SDS011;38422;53.172;6.974;2023-12-20T14:32:46;5.05;;;0.80;;
52512;SDS011;38422;53.172;6.974;2023-12-20T14:35:13;5.22;;;0.75;;
52512;SDS011;38422;53.172;6.974;2023-12-20T14:37:39;5.10;;;1.25;;
52512;SDS011;38422;53.172;6.974;2023-12-20T14:40:09;3.38;;;0.77;;
52512;SDS011;38422;53.172;6.974;2023-12-20T14:42:36;2.33;;;0.60;;
52512;SDS011;38422;53.172;6.974;2023-12-20T14:45:02;2.03;;;0.45;;
52512;SDS011;38422;53.172;6.974;2023-12-20T14:47:28;5.00;;;0.80;;
52512;SDS011;38422;53.172;6.974;2023-12-20T14:49:53;4.72;;;0.63;;
52512;SDS011;38422;53.172;6.974;2023-12-20T14:52:19;5.10;;;0.70;;
52512;SDS011;38422;53.172;6.974;2023-12-20T14:54:45;2.45;;;0.50;;
52512;SDS011;38422;53.172;6.974;2023-12-20T14:57:11;6.68;;;0.70;;